Time,TemperatureF,DewpointF,PressureIn,WindDirection,WindDirectionDegrees,WindSpeedMPH,WindSpeedGustMPH,Humidity,HourlyPrecipIn,Conditions,Clouds,dailyrainin,SoftwareType,DateUTC
2013-02-12 00:05:00,45.4,45.4,30.39,NW,306,0.0,0.0,100,0.00,RA,,0.00,WeatherDisplay:10.37,2013-02-12 08:05:00,
2013-02-12 00:20:00,45.2,45.2,30.39,NW,306,0.0,0.0,100,0.00,OVC,,0.00,WeatherDisplay:10.37,2013-02-12 08:20:00,
2013-02-12 00:35:00,45.1,45.1,30.39,NW,306,0.0,0.0,100,0.00,OVC,,0.00,WeatherDisplay:10.37,2013-02-12 08:35:00,
2013-02-12 00:50:00,44.9,44.9,30.39,NW,306,0.0,0.0,100,0.00,OVC,,0.00,WeatherDisplay:10.37,2013-02-12 08:50:00,
2013-02-12 01:05:00,44.8,44.8,30.39,NW,306,0.0,0.0,100,0.00,OVC,,0.00,WeatherDisplay:10.37,2013-02-12 09:05:00,
2013-02-12 01:20:00,44.9,44.9,30.39,NW,306,0.0,0.0,100,0.00,OVC,,0.00,WeatherDisplay:10.37,2013-02-12 09:20:00,
2013-02-12 01:35:00,45.0,45.0,30.39,NW,306,0.0,0.0,100,0.00,OVC,,0.00,WeatherDisplay:10.37,2013-02-12 09:35:00,
2013-02-12 01:50:00,45.1,45.1,30.39,NW,306,0.0,0.0,100,0.00,OVC,,0.00,WeatherDisplay:10.37,2013-02-12 09:50:00,
2013-02-12 02:05:00,45.1,45.1,30.39,NW,306,0.0,0.0,100,0.01,RA,,0.01,WeatherDisplay:10.37,2013-02-12 10:05:00,
2013-02-12 02:20:00,45.1,45.1,30.39,NW,306,0.0,1.0,100,0.02,RA,,0.02,WeatherDisplay:10.37,2013-02-12 10:20:00,
2013-02-12 02:35:00,45.2,45.2,30.39,NW,306,0.0,0.0,100,0.02,OVC,,0.02,WeatherDisplay:10.37,2013-02-12 10:35:00,
2013-02-12 02:50:00,45.2,45.2,30.39,NW,306,0.0,0.0,100,0.02,OVC,,0.02,WeatherDisplay:10.37,2013-02-12 10:50:00,
2013-02-12 03:05:00,45.1,45.1,30.39,NW,306,0.0,0.0,100,0.01,OVC,,0.02,WeatherDisplay:10.37,2013-02-12 11:05:00,
2013-02-12 03:20:00,45.2,45.2,30.38,NW,306,0.0,1.0,100,0.00,OVC,,0.02,WeatherDisplay:10.37,2013-02-12 11:20:00,
2013-02-12 03:35:00,45.2,45.2,30.38,NW,306,0.0,0.0,100,0.00,OVC,,0.02,WeatherDisplay:10.37,2013-02-12 11:35:00,
2013-02-12 03:50:00,45.3,45.3,30.37,NW,306,0.0,2.0,100,0.00,OVC,,0.02,WeatherDisplay:10.37,2013-02-12 11:50:00,
2013-02-12 04:05:00,45.3,45.3,30.37,NW,306,0.0,1.0,100,0.00,OVC,,0.02,WeatherDisplay:10.37,2013-02-12 12:05:00,
2013-02-12 04:20:00,45.4,45.4,30.38,NW,306,0.0,0.0,100,0.00,OVC,,0.02,WeatherDisplay:10.37,2013-02-12 12:20:00,
2013-02-12 04:35:00,45.5,45.5,30.38,NW,306,0.0,0.0,100,0.00,OVC,,0.02,WeatherDisplay:10.37,2013-02-12 12:35:00,
2013-02-12 04:50:00,45.6,45.6,30.38,NW,306,0.0,0.0,100,0.01,RA,,0.03,WeatherDisplay:10.37,2013-02-12 12:50:00,
2013-02-12 05:05:00,45.7,45.7,30.38,NW,306,0.0,0.0,100,0.01,OVC,,0.03,WeatherDisplay:10.37,2013-02-12 13:05:00,
2013-02-12 05:20:00,45.8,45.8,30.38,NW,306,0.0,0.0,100,0.01,OVC,,0.03,WeatherDisplay:10.37,2013-02-12 13:20:00,
2013-02-12 05:35:00,45.8,45.8,30.38,NW,306,0.0,1.0,100,0.02,RA,,0.04,WeatherDisplay:10.37,2013-02-12 13:35:00,
2013-02-12 05:50:00,45.8,45.8,30.38,NW,306,0.0,2.0,100,0.01,OVC,,0.04,WeatherDisplay:10.37,2013-02-12 13:50:00,
2013-02-12 06:05:00,45.9,45.9,30.38,NW,306,0.0,0.0,100,0.01,OVC,,0.04,WeatherDisplay:10.37,2013-02-12 14:05:00,
2013-02-12 06:20:00,45.9,45.9,30.38,NW,320,0.0,3.0,100,0.01,OVC,,0.04,WeatherDisplay:10.37,2013-02-12 14:20:00,
2013-02-12 06:35:00,45.9,45.9,30.39,NW,325,1.0,5.0,100,0.00,OVC,,0.04,WeatherDisplay:10.37,2013-02-12 14:35:00,
2013-02-12 06:50:00,45.8,45.8,30.40,NW,323,0.0,0.0,100,0.00,OVC,,0.04,WeatherDisplay:10.37,2013-02-12 14:50:00,
2013-02-12 07:05:00,45.5,45.5,30.40,NW,325,0.0,0.0,100,0.00,OVC,,0.04,WeatherDisplay:10.37,2013-02-12 15:05:00,
2013-02-12 07:20:00,45.4,45.4,30.40,NW,324,0.0,0.0,100,0.00,OVC,,0.04,WeatherDisplay:10.37,2013-02-12 15:20:00,
2013-02-12 07:35:00,45.4,45.4,30.41,NW,324,0.0,0.0,100,0.00,OVC,,0.04,WeatherDisplay:10.37,2013-02-12 15:35:00,
2013-02-12 07:50:00,45.5,45.5,30.41,NW,324,0.0,0.0,100,0.00,OVC,,0.04,WeatherDisplay:10.37,2013-02-12 15:50:00,
2013-02-12 08:05:00,45.5,45.5,30.42,NW,324,0.0,0.0,100,0.00,OVC,,0.04,WeatherDisplay:10.37,2013-02-12 16:05:00,
2013-02-12 08:20:00,45.4,45.4,30.43,NW,324,0.0,0.0,100,0.00,OVC,,0.04,WeatherDisplay:10.37,2013-02-12 16:20:00,
2013-02-12 08:35:00,45.5,45.5,30.43,NW,325,0.0,0.0,100,0.00,OVC,,0.04,WeatherDisplay:10.37,2013-02-12 16:35:00,
2013-02-12 08:50:00,45.5,45.5,30.44,NW,325,0.0,0.0,100,0.00,OVC,,0.04,WeatherDisplay:10.37,2013-02-12 16:50:00,
2013-02-12 09:05:00,45.6,45.6,30.44,NW,324,0.0,0.0,100,0.00,OVC,,0.04,WeatherDisplay:10.37,2013-02-12 17:05:00,
2013-02-12 09:20:00,45.6,45.6,30.45,NW,324,0.0,0.0,100,0.00,OVC,,0.04,WeatherDisplay:10.37,2013-02-12 17:20:00,
2013-02-12 09:35:00,45.6,45.6,30.45,NW,324,0.0,0.0,100,0.00,OVC,,0.04,WeatherDisplay:10.37,2013-02-12 17:35:00,
2013-02-12 09:50:00,45.7,45.7,30.45,NW,323,0.0,0.0,100,0.00,OVC,,0.04,WeatherDisplay:10.37,2013-02-12 17:50:00,
2013-02-12 10:05:00,46.0,46.0,30.45,NW,322,1.0,0.0,100,0.00,OVC,,0.04,WeatherDisplay:10.37,2013-02-12 18:05:00,
2013-02-12 10:20:00,45.8,45.8,30.45,NW,323,0.0,1.0,100,0.00,OVC,,0.04,WeatherDisplay:10.37,2013-02-12 18:20:00,
2013-02-12 10:35:00,46.1,46.1,30.45,NW,323,0.0,2.0,100,0.00,OVC,,0.04,WeatherDisplay:10.37,2013-02-12 18:35:00,
2013-02-12 10:50:00,45.9,45.9,30.46,NW,323,0.0,0.0,100,0.00,OVC,,0.04,WeatherDisplay:10.37,2013-02-12 18:50:00,
2013-02-12 11:05:00,46.0,46.0,30.46,NW,324,0.0,0.0,100,0.00,OVC,,0.04,WeatherDisplay:10.37,2013-02-12 19:05:00,
2013-02-12 11:20:00,46.2,46.2,30.46,NW,324,2.0,3.0,100,0.00,OVC,,0.04,WeatherDisplay:10.37,2013-02-12 19:20:00,
2013-02-12 11:35:00,46.1,46.1,30.47,NW,323,0.0,2.0,100,0.00,OVC,,0.04,WeatherDisplay:10.37,2013-02-12 19:35:00,
2013-02-12 11:50:00,46.3,46.3,30.46,NW,323,1.0,1.0,100,0.00,OVC,,0.04,WeatherDisplay:10.37,2013-02-12 19:50:00,
2013-02-12 12:05:00,46.3,46.3,30.46,NW,322,0.0,1.0,100,0.00,OVC,,0.04,WeatherDisplay:10.37,2013-02-12 20:05:00,
2013-02-12 12:20:00,46.2,46.2,30.45,NW,321,1.0,3.0,100,0.00,OVC,,0.04,WeatherDisplay:10.37,2013-02-12 20:20:00,
2013-02-12 12:35:00,46.2,46.2,30.45,NW,314,2.0,5.0,100,0.00,OVC,,0.04,WeatherDisplay:10.37,2013-02-12 20:35:00,
2013-02-12 12:50:00,46.2,46.2,30.45,NNW,327,1.0,2.0,100,0.00,OVC,,0.04,WeatherDisplay:10.37,2013-02-12 20:50:00,
2013-02-12 13:05:00,46.5,46.5,30.44,NW,324,2.0,3.0,100,0.01,RA,,0.05,WeatherDisplay:10.37,2013-02-12 21:05:00,
2013-02-12 13:20:00,46.6,46.6,30.43,NW,316,2.0,6.0,100,0.01,OVC,,0.05,WeatherDisplay:10.37,2013-02-12 21:20:00,
2013-02-12 13:35:00,46.9,46.9,30.44,NW,307,2.0,2.0,100,0.01,OVC,,0.05,WeatherDisplay:10.37,2013-02-12 21:35:00,
2013-02-12 13:50:00,46.7,46.7,30.43,NW,310,1.0,3.0,100,0.01,OVC,,0.05,WeatherDisplay:10.37,2013-02-12 21:50:00,
2013-02-12 14:05:00,46.7,46.7,30.43,NW,309,2.0,3.0,100,0.00,OVC,,0.05,WeatherDisplay:10.37,2013-02-12 22:05:00,
2013-02-12 14:20:00,46.8,46.8,30.43,NW,309,0.0,4.0,100,0.00,OVC,,0.05,WeatherDisplay:10.37,2013-02-12 22:20:00,
2013-02-12 14:35:00,46.9,46.9,30.43,NW,309,1.0,3.0,100,0.00,OVC,,0.05,WeatherDisplay:10.37,2013-02-12 22:35:00,
2013-02-12 14:50:00,46.8,46.8,30.42,NW,307,3.0,5.0,100,0.00,OVC,,0.05,WeatherDisplay:10.37,2013-02-12 22:50:00,
2013-02-12 15:05:00,46.9,46.9,30.41,NW,309,2.0,2.0,100,0.00,OVC,,0.05,WeatherDisplay:10.37,2013-02-12 23:05:00,
2013-02-12 15:20:00,47.0,47.0,30.42,NW,322,1.0,3.0,100,0.00,OVC,,0.05,WeatherDisplay:10.37,2013-02-12 23:20:00,
2013-02-12 15:35:00,46.9,46.9,30.42,NW,305,2.0,6.0,100,0.00,OVC,,0.05,WeatherDisplay:10.37,2013-02-12 23:35:00,
2013-02-12 15:50:00,46.5,46.5,30.43,NW,324,1.0,3.0,100,0.00,OVC,,0.05,WeatherDisplay:10.37,2013-02-12 23:50:00,
2013-02-12 16:05:00,46.3,46.3,30.43,NNW,331,1.0,3.0,100,0.00,OVC,,0.05,WeatherDisplay:10.37,2013-02-13 00:05:00,
2013-02-12 16:20:00,46.1,46.1,30.43,NNW,330,2.0,3.0,100,0.00,-RA,,0.05,WeatherDisplay:10.37,2013-02-13 00:20:00,
2013-02-12 16:35:00,46.0,46.0,30.43,NNW,332,1.0,3.0,100,0.00,-RA,,0.05,WeatherDisplay:10.37,2013-02-13 00:35:00,
2013-02-12 16:50:00,45.9,45.9,30.43,NNW,327,2.0,6.0,100,0.01,-RA,,0.06,WeatherDisplay:10.37,2013-02-13 00:50:00,
2013-02-12 17:05:00,45.9,45.9,30.42,NNW,329,1.0,4.0,100,0.01,-RA,,0.06,WeatherDisplay:10.37,2013-02-13 01:05:00,
2013-02-12 17:20:00,46.0,46.0,30.42,NNW,329,1.0,3.0,100,0.01,-RA,,0.06,WeatherDisplay:10.37,2013-02-13 01:20:00,
2013-02-12 17:35:00,46.0,46.0,30.42,NW,323,2.0,3.0,100,0.01,-RA,,0.06,WeatherDisplay:10.37,2013-02-13 01:35:00,
2013-02-12 17:50:00,46.0,46.0,30.42,NNW,329,1.0,4.0,100,0.00,OVC,,0.06,WeatherDisplay:10.37,2013-02-13 01:50:00,
2013-02-12 18:05:00,46.1,46.1,30.42,NNW,327,1.0,3.0,100,0.00,OVC,,0.06,WeatherDisplay:10.37,2013-02-13 02:05:00,
2013-02-12 18:20:00,46.1,46.1,30.42,NW,325,0.0,0.0,100,0.01,RA,,0.07,WeatherDisplay:10.37,2013-02-13 02:20:00,
2013-02-12 18:35:00,46.1,46.1,30.42,NW,319,1.0,2.0,100,0.01,OVC,,0.07,WeatherDisplay:10.37,2013-02-13 02:35:00,
2013-02-12 18:50:00,46.2,46.2,30.42,NW,322,0.0,2.0,100,0.01,OVC,,0.07,WeatherDisplay:10.37,2013-02-13 02:50:00,
2013-02-12 19:05:00,46.3,46.3,30.42,NW,326,0.0,2.0,100,0.01,OVC,,0.07,WeatherDisplay:10.37,2013-02-13 03:05:00,
2013-02-12 19:20:00,46.4,46.4,30.42,NNW,328,0.0,3.0,100,0.00,OVC,,0.07,WeatherDisplay:10.37,2013-02-13 03:20:00,
2013-02-12 19:35:00,46.3,46.3,30.42,NW,318,1.0,3.0,100,0.00,OVC,,0.07,WeatherDisplay:10.37,2013-02-13 03:35:00,
2013-02-12 19:50:00,46.3,46.3,30.42,NNW,330,2.0,3.0,100,0.01,OVC,,0.08,WeatherDisplay:10.37,2013-02-13 03:50:00,
2013-02-12 20:05:00,45.9,45.9,30.41,NNW,328,2.0,8.0,100,0.01,OVC,,0.08,WeatherDisplay:10.37,2013-02-13 04:05:00,
2013-02-12 20:20:00,45.8,45.8,30.41,NW,316,1.0,2.0,100,0.01,OVC,,0.08,WeatherDisplay:10.37,2013-02-13 04:20:00,
2013-02-12 20:35:00,45.9,45.9,30.41,NW,324,1.0,4.0,100,0.01,-RA,,0.08,WeatherDisplay:10.37,2013-02-13 04:35:00,
2013-02-12 20:50:00,46.1,46.1,30.41,NNW,336,1.0,2.0,100,0.00,-RA,,0.08,WeatherDisplay:10.37,2013-02-13 04:50:00,
2013-02-12 21:05:00,46.1,46.1,30.41,NW,325,1.0,3.0,100,0.00,OVC,,0.08,WeatherDisplay:10.37,2013-02-13 05:05:00,
2013-02-12 21:20:00,46.2,46.2,30.41,NW,326,2.0,6.0,100,0.00,-RA,,0.08,WeatherDisplay:10.37,2013-02-13 05:20:00,
2013-02-12 21:35:00,46.3,46.3,30.41,NW,316,2.0,5.0,100,0.01,-RA,,0.09,WeatherDisplay:10.37,2013-02-13 05:35:00,
2013-02-12 21:50:00,46.2,46.2,30.41,NW,325,1.0,3.0,100,0.03,-RA,,0.11,WeatherDisplay:10.37,2013-02-13 05:50:00,
2013-02-12 22:05:00,46.2,46.2,30.41,NNW,332,1.0,3.0,100,0.04,-RA,,0.12,WeatherDisplay:10.37,2013-02-13 06:05:00,
2013-02-12 22:20:00,46.2,46.2,30.41,NNW,330,2.0,3.0,100,0.05,-RA,,0.13,WeatherDisplay:10.37,2013-02-13 06:20:00,
2013-02-12 22:35:00,46.3,46.3,30.41,NNW,328,2.0,5.0,100,0.05,-RA,,0.14,WeatherDisplay:10.37,2013-02-13 06:35:00,
2013-02-12 22:50:00,46.3,46.3,30.40,NW,324,2.0,7.0,100,0.04,-RA,,0.15,WeatherDisplay:10.37,2013-02-13 06:50:00,
2013-02-12 23:05:00,46.3,46.3,30.41,NW,308,1.0,3.0,100,0.03,OVC,,0.15,WeatherDisplay:10.37,2013-02-13 07:05:00,
2013-02-12 23:20:00,46.4,46.4,30.41,NW,317,1.0,5.0,100,0.02,OVC,,0.15,WeatherDisplay:10.37,2013-02-13 07:20:00,
2013-02-12 23:35:00,46.4,46.4,30.41,NW,325,1.0,3.0,100,0.02,RA,,0.16,WeatherDisplay:10.37,2013-02-13 07:35:00,
2013-02-12 23:50:00,46.5,46.5,30.41,NW,324,1.0,2.0,100,0.01,OVC,,0.16,WeatherDisplay:10.37,2013-02-13 07:50:00,